Time;durP1;ratioP1;P1;durP2;ratioP2;P2;SDS_P1;SDS_P2;PMS_P1;PMS_P2;Temp;Humidity;BMP_temperature;BMP_pressure;BME280_temperature;BME280_humidity;BME280_pressure;Samples;Min_cycle;Max_cycle;Signal;HPM_P1;HPM_P2
2022/05/29 00:01:48;;;;;;;0.05;0.05;;;22.40;86.60;;;;;;5053017;28;20079;-72
2022/05/29 00:04:16;;;;;;;0.15;0.15;;;22.80;86.40;;;;;;5047217;28;20034;-72
2022/05/29 00:06:48;;;;;;;0.10;0.00;;;23.10;87.50;;;;;;5052635;28;20025;-72
2022/05/29 00:09:28;;;;;;;0.77;0.10;;;23.20;84.60;;;;;;5046147;28;20036;-72
2022/05/29 00:11:55;;;;;;;0.00;0.00;;;23.20;85.10;;;;;;5033988;28;20029;-71
2022/05/29 00:14:22;;;;;;;0.10;0.00;;;23.50;83.70;;;;;;5044887;28;20013;-72
2022/05/29 00:16:50;;;;;;;0.65;0.00;;;23.90;83.20;;;;;;5049000;28;20112;-72
2022/05/29 00:19:17;;;;;;;0.25;0.10;;;24.20;82.00;;;;;;5050226;28;20036;-72
2022/05/29 00:21:45;;;;;;;0.15;0.10;;;24.20;80.00;;;;;;5052178;28;20059;-72
2022/05/29 00:24:13;;;;;;;0.05;0.00;;;24.20;78.90;;;;;;5044407;28;20166;-71
2022/05/29 00:26:41;;;;;;;0.35;0.00;;;24.00;79.80;;;;;;5029815;28;20033;-71
2022/05/29 00:29:09;;;;;;;0.00;0.00;;;24.10;81.70;;;;;;5033350;28;20140;-73
2022/05/29 00:31:36;;;;;;;0.22;0.00;;;24.50;80.40;;;;;;5051956;28;20029;-71
2022/05/29 00:34:04;;;;;;;0.10;0.03;;;24.70;79.50;;;;;;5048298;28;20443;-72
2022/05/29 00:36:38;;;;;;;1.27;0.00;;;24.90;78.70;;;;;;5046870;28;20075;-72
2022/05/29 00:39:07;;;;;;;0.00;0.00;;;24.90;78.10;;;;;;5035801;28;20112;-72
2022/05/29 00:41:36;;;;;;;0.10;0.10;;;25.00;77.70;;;;;;5033464;28;20068;-72
2022/05/29 00:44:21;;;;;;;0.75;0.10;;;25.20;78.10;;;;;;5041708;28;20041;-73
2022/05/29 00:46:56;;;;;;;0.27;0.00;;;25.20;76.50;;;;;;5028959;28;20334;-70
2022/05/29 00:49:31;;;;;;;0.00;0.00;;;25.30;76.60;;;;;;5034731;28;20297;-71
2022/05/29 00:52:11;;;;;;;0.05;0.00;;;25.60;75.70;;;;;;5043439;28;20046;-69
2022/05/29 00:55:01;;;;;;;0.00;0.00;;;25.70;76.90;;;;;;5035723;28;20035;-70
2022/05/29 00:57:34;;;;;;;0.03;0.00;;;26.00;75.00;;;;;;5033355;28;20026;-71
2022/05/29 01:00:25;;;;;;;0.15;0.10;;;26.00;74.70;;;;;;5034242;28;20045;-72
2022/05/29 01:02:55;;;;;;;0.30;0.00;;;26.30;76.10;;;;;;5032009;28;20044;-72
2022/05/29 01:05:24;;;;;;;0.43;0.00;;;26.30;74.50;;;;;;5028552;28;20469;-71
2022/05/29 01:08:40;;;;;;;0.13;0.00;;;26.30;73.40;;;;;;5028263;28;20031;-70
2022/05/29 01:11:20;;;;;;;1.17;0.00;;;26.50;73.10;;;;;;5012013;28;20819;-73
2022/05/29 01:13:52;;;;;;;0.00;0.00;;;26.40;73.60;;;;;;5020257;28;20794;-72
2022/05/29 01:16:44;;;;;;;0.00;0.00;;;26.60;73.90;;;;;;5024839;28;20190;-73
2022/05/29 01:19:40;;;;;;;0.13;0.03;;;26.80;73.40;;;;;;5043187;28;20098;-71
2022/05/29 01:22:42;;;;;;;0.52;0.00;;;27.00;74.60;;;;;;5034388;28;20173;-72
2022/05/29 01:25:12;;;;;;;0.15;0.00;;;27.30;72.30;;;;;;5033068;28;20037;-74
2022/05/29 01:28:23;;;;;;;0.10;0.00;;;27.20;71.20;;;;;;5031752;28;20656;-70
2022/05/29 01:31:03;;;;;;;1.77;0.05;;;27.40;73.80;;;;;;5030641;28;20073;-71
2022/05/29 01:34:07;;;;;;;0.05;0.00;;;27.70;73.30;;;;;;5029926;28;20064;-72
2022/05/29 01:36:49;;;;;;;1.38;0.10;;;27.70;70.40;;;;;;5029827;28;20025;-72
2022/05/29 01:39:56;;;;;;;0.08;0.08;;;27.60;70.90;;;;;;5031442;28;20037;-72
2022/05/29 01:42:43;;;;;;;0.70;0.00;;;27.40;69.50;;;;;;5011398;28;20046;-71
2022/05/29 01:45:22;;;;;;;0.10;0.00;;;26.90;69.70;;;;;;5031792;28;20029;-74
2022/05/29 01:47:56;;;;;;;0.35;0.17;;;26.80;70.30;;;;;;5030707;28;20062;-70
2022/05/29 01:50:52;;;;;;;0.63;0.17;;;26.60;70.10;;;;;;5035195;28;20391;-73
2022/05/29 01:53:27;;;;;;;0.65;0.10;;;26.40;70.80;;;;;;5035294;28;20111;-71
2022/05/29 01:56:01;;;;;;;0.75;0.10;;;26.50;69.30;;;;;;5030374;28;20055;-71
2022/05/29 01:58:40;;;;;;;0.70;0.03;;;26.30;69.50;;;;;;5031025;28;20029;-72
2022/05/29 02:01:10;;;;;;;3.08;0.13;;;26.10;70.40;;;;;;5032907;28;20492;-72
2022/05/29 02:03:57;;;;;;;0.22;0.17;;;26.10;69.70;;;;;;5033551;28;20029;-72
2022/05/29 02:07:47;;;;;;;0.47;0.10;;;26.10;71.00;;;;;;5030834;28;20052;-73
2022/05/29 02:09:22;;;;;;;2.70;0.10;;;26.20;76.80;;;;;;5028977;28;20132;-72
2022/05/29 02:11:59;;;;;;;0.20;0.10;;;26.10;74.00;;;;;;5035409;28;20361;-72
2022/05/29 02:14:34;;;;;;;0.13;0.00;;;25.90;70.60;;;;;;5041014;28;20065;-72
2022/05/29 02:17:24;;;;;;;0.10;0.10;;;25.70;71.10;;;;;;5034575;28;20032;-70
2022/05/29 02:20:04;;;;;;;0.00;0.00;;;25.60;72.40;;;;;;5032088;28;20543;-71
2022/05/29 02:22:35;;;;;;;0.38;0.30;;;25.50;70.70;;;;;;5036802;28;20364;-72
2022/05/29 02:25:17;;;;;;;0.20;0.10;;;25.50;74.90;;;;;;5030935;28;20480;-72
2022/05/29 02:27:48;;;;;;;0.20;0.20;;;25.70;75.50;;;;;;5028183;28;20041;-71
2022/05/29 02:30:15;;;;;;;0.32;0.00;;;25.80;74.20;;;;;;5044430;28;20039;-72
2022/05/29 02:32:54;;;;;;;0.00;0.00;;;25.60;74.10;;;;;;5050021;28;20040;-72
2022/05/29 02:35:28;;;;;;;0.25;0.25;;;25.10;73.80;;;;;;5045511;28;20486;-71
2022/05/29 02:38:18;;;;;;;0.10;0.00;;;25.20;74.40;;;;;;5030233;28;20021;-72
2022/05/29 02:41:20;;;;;;;0.20;0.10;;;25.40;74.60;;;;;;5030040;28;20083;-72
2022/05/29 02:44:05;;;;;;;0.38;0.00;;;25.30;71.70;;;;;;5030004;28;20044;-70
2022/05/29 02:46:48;;;;;;;0.00;0.00;;;25.20;73.30;;;;;;5032295;28;20060;-70
2022/05/29 02:49:24;;;;;;;0.95;0.10;;;25.30;72.90;;;;;;5037889;28;20132;-71
2022/05/29 02:52:02;;;;;;;0.10;0.10;;;25.20;74.20;;;;;;5044331;28;20041;-71
2022/05/29 02:54:32;;;;;;;0.00;0.00;;;25.20;74.50;;;;;;5030140;28;20388;-71
2022/05/29 02:57:02;;;;;;;0.40;0.08;;;25.20;73.10;;;;;;5033140;28;20021;-71
2022/05/29 02:59:39;;;;;;;0.10;0.05;;;24.70;73.20;;;;;;5035069;28;20507;-72
2022/05/29 03:02:29;;;;;;;0.08;0.00;;;24.70;74.00;;;;;;5049142;28;20040;-71
2022/05/29 03:05:11;;;;;;;0.00;0.00;;;24.60;73.00;;;;;;5044809;28;20036;-70
2022/05/29 03:08:01;;;;;;;0.20;0.00;;;24.60;74.50;;;;;;5029764;28;20026;-71
2022/05/29 03:10:37;;;;;;;0.45;0.10;;;24.20;74.00;;;;;;5041553;28;20517;-72
2022/05/29 03:13:42;;;;;;;0.10;0.00;;;23.70;72.60;;;;;;5049533;28;20025;-72
2022/05/29 03:16:36;;;;;;;0.25;0.10;;;23.40;73.20;;;;;;5024278;28;20069;-72
2022/05/29 03:19:21;;;;;;;0.20;0.10;;;23.30;75.10;;;;;;5032841;28;20111;-71
2022/05/29 03:21:49;;;;;;;0.10;0.10;;;23.10;74.30;;;;;;5049332;28;20364;-72
2022/05/29 03:24:25;;;;;;;0.00;0.00;;;22.70;74.90;;;;;;5047122;28;20029;-72
2022/05/29 03:27:07;;;;;;;0.65;0.00;;;22.50;74.80;;;;;;5033773;28;20456;-72
2022/05/29 03:29:48;;;;;;;0.00;0.00;;;21.80;74.50;;;;;;5032751;28;20584;-72
2022/05/29 03:32:15;;;;;;;1.25;0.10;;;21.40;77.10;;;;;;5042070;28;20921;-72
2022/05/29 03:34:43;;;;;;;0.30;0.10;;;20.90;78.20;;;;;;5045848;28;20029;-72
2022/05/29 03:37:10;;;;;;;0.10;0.03;;;20.50;78.00;;;;;;5052689;28;20048;-71
2022/05/29 03:39:38;;;;;;;0.47;0.38;;;20.20;79.80;;;;;;5036297;28;20033;-72
2022/05/29 03:42:05;;;;;;;0.17;0.08;;;19.90;79.90;;;;;;5037077;28;20037;-70
2022/05/29 03:44:33;;;;;;;0.08;0.00;;;19.60;80.50;;;;;;5045946;28;20049;-71
2022/05/29 03:47:00;;;;;;;0.00;0.00;;;19.40;80.10;;;;;;5040599;28;20040;-71
2022/05/29 03:49:28;;;;;;;0.20;0.05;;;19.20;82.40;;;;;;5037448;28;20132;-71
2022/05/29 03:51:55;;;;;;;0.10;0.05;;;19.20;81.50;;;;;;5038559;28;20030;-72
2022/05/29 03:54:22;;;;;;;0.57;0.00;;;19.00;81.60;;;;;;5041429;28;20036;-71
2022/05/29 03:56:50;;;;;;;0.10;0.00;;;18.90;83.20;;;;;;5036884;28;20033;-71
2022/05/29 03:59:17;;;;;;;0.73;0.08;;;18.80;83.10;;;;;;5033108;28;20032;-71
2022/05/29 04:01:45;;;;;;;0.38;0.03;;;18.70;83.00;;;;;;5033071;28;20495;-71
2022/05/29 04:04:12;;;;;;;0.25;0.10;;;18.60;82.70;;;;;;5034851;28;20041;-70
2022/05/29 04:06:40;;;;;;;0.00;0.00;;;18.50;83.90;;;;;;5034614;28;20377;-70
2022/05/29 04:12:07;;;;;;;0.10;0.00;;;18.40;82.90;;;;;;5040987;28;20036;-71
2022/05/29 04:14:41;;;;;;;0.10;0.00;;;18.30;84.20;;;;;;5045957;28;20205;-70
2022/05/29 04:17:14;;;;;;;0.00;0.00;;;18.20;83.50;;;;;;5034078;28;20024;-72
2022/05/29 04:19:44;;;;;;;0.85;0.10;;;18.20;83.80;;;;;;5044486;28;20029;-71
2022/05/29 04:22:19;;;;;;;0.10;0.10;;;18.10;83.70;;;;;;5038840;28;20025;-70
2022/05/29 04:24:47;;;;;;;0.57;0.17;;;18.00;84.50;;;;;;5035874;28;20060;-71
2022/05/29 04:27:16;;;;;;;0.00;0.00;;;18.00;85.60;;;;;;5030834;28;20060;-71
2022/05/29 04:29:43;;;;;;;0.10;0.00;;;18.00;84.30;;;;;;5037570;28;20215;-71
2022/05/29 04:35:16;;;;;;;0.35;0.00;;;17.90;85.60;;;;;;5032717;28;20120;-71
2022/05/29 04:37:44;;;;;;;0.08;0.08;;;17.80;84.40;;;;;;5030525;28;20087;-71
2022/05/29 04:40:12;;;;;;;0.10;0.10;;;17.80;85.20;;;;;;5030852;28;20057;-71
2022/05/29 04:42:39;;;;;;;0.10;0.00;;;17.80;84.90;;;;;;5047365;28;20029;-72
2022/05/29 04:45:07;;;;;;;0.00;0.00;;;17.70;86.00;;;;;;5049003;28;20387;-73
2022/05/29 04:47:34;;;;;;;0.10;0.10;;;17.70;85.60;;;;;;5049892;28;20037;-70
2022/05/29 04:50:02;;;;;;;0.10;0.00;;;17.70;86.50;;;;;;5040987;28;20030;-70
2022/05/29 04:52:29;;;;;;;0.40;0.00;;;17.70;86.20;;;;;;5033037;28;20026;-72
2022/05/29 04:54:56;;;;;;;0.38;0.08;;;17.70;86.50;;;;;;5032455;28;20065;-72
2022/05/29 04:57:24;;;;;;;0.10;0.00;;;17.70;86.10;;;;;;5049782;28;20079;-72
2022/05/29 04:59:51;;;;;;;0.00;0.00;;;17.60;85.80;;;;;;5045002;28;20033;-69
2022/05/29 05:02:18;;;;;;;0.05;0.03;;;17.50;85.60;;;;;;5034090;28;20040;-71
2022/05/29 05:04:46;;;;;;;0.00;0.00;;;17.50;86.50;;;;;;5041557;28;20037;-72
2022/05/29 05:07:13;;;;;;;0.45;0.10;;;17.50;86.40;;;;;;5047355;28;20021;-72
2022/05/29 05:09:40;;;;;;;0.00;0.00;;;17.40;87.10;;;;;;5040942;28;20025;-72
2022/05/29 05:12:08;;;;;;;0.08;0.00;;;17.40;86.60;;;;;;5033979;28;20448;-72
2022/05/29 05:14:36;;;;;;;0.20;0.10;;;17.40;87.40;;;;;;5049498;28;20055;-72
2022/05/29 05:17:04;;;;;;;0.20;0.03;;;17.40;86.60;;;;;;5034149;28;20086;-73
2022/05/29 05:19:32;;;;;;;0.93;0.10;;;17.30;86.50;;;;;;5035364;28;20029;-72
2022/05/29 05:22:04;;;;;;;0.68;0.00;;;17.20;86.70;;;;;;5035534;28;20053;-73
2022/05/29 05:24:34;;;;;;;0.65;0.10;;;17.10;86.50;;;;;;5034346;28;20032;-72
2022/05/29 05:27:01;;;;;;;0.20;0.05;;;17.10;86.50;;;;;;5035765;28;20039;-72
2022/05/29 05:29:28;;;;;;;0.10;0.10;;;17.10;86.90;;;;;;5037051;28;20036;-71
2022/05/29 05:31:56;;;;;;;0.00;0.00;;;17.10;86.40;;;;;;5031839;28;21693;-73
2022/05/29 05:34:24;;;;;;;0.10;0.00;;;17.10;87.70;;;;;;5035241;28;20191;-72
2022/05/29 05:36:51;;;;;;;0.10;0.10;;;17.10;87.90;;;;;;5036325;28;20030;-74
2022/05/29 05:39:20;;;;;;;0.32;0.00;;;17.10;86.90;;;;;;5031858;28;20091;-73
2022/05/29 05:41:48;;;;;;;0.10;0.03;;;17.10;87.00;;;;;;5030263;28;20078;-73
2022/05/29 05:44:15;;;;;;;0.20;0.10;;;17.00;87.10;;;;;;5035705;28;20026;-73
2022/05/29 05:46:53;;;;;;;0.32;0.00;;;17.00;86.70;;;;;;5051257;28;20028;-73
2022/05/29 05:49:22;;;;;;;0.10;0.10;;;17.00;87.20;;;;;;5042720;28;20114;-72
2022/05/29 05:51:50;;;;;;;0.00;0.00;;;17.00;87.20;;;;;;5036850;28;20036;-72
2022/05/29 05:54:18;;;;;;;0.10;0.05;;;17.00;87.40;;;;;;5043984;28;20536;-72
2022/05/29 05:56:50;;;;;;;0.55;0.30;;;17.10;87.00;;;;;;5030210;28;20076;-73
2022/05/29 05:59:17;;;;;;;0.20;0.20;;;17.00;87.20;;;;;;5037453;28;20111;-73
2022/05/29 06:01:45;;;;;;;1.95;0.30;;;17.00;87.50;;;;;;5041469;28;20036;-72
2022/05/29 06:04:12;;;;;;;0.17;0.10;;;17.10;87.40;;;;;;5032640;28;20030;-73
2022/05/29 06:06:40;;;;;;;0.10;0.00;;;17.10;87.40;;;;;;5046767;28;20041;-71
2022/05/29 06:09:07;;;;;;;0.60;0.10;;;17.10;87.90;;;;;;5040171;28;20558;-74
2022/05/29 06:11:39;;;;;;;0.10;0.10;;;17.10;88.20;;;;;;5046014;28;20392;-72
2022/05/29 06:14:07;;;;;;;0.30;0.20;;;17.10;88.40;;;;;;5039896;28;20400;-71
2022/05/29 06:16:36;;;;;;;0.00;0.00;;;17.20;88.90;;;;;;5039346;28;20064;-72
2022/05/29 06:19:05;;;;;;;0.10;0.10;;;17.20;89.00;;;;;;5029805;28;20053;-72
2022/05/29 06:21:33;;;;;;;3.42;0.10;;;17.20;88.90;;;;;;5038329;28;20047;-73
2022/05/29 06:24:00;;;;;;;0.10;0.00;;;17.20;89.20;;;;;;5047120;28;20032;-72
2022/05/29 06:26:28;;;;;;;0.00;0.00;;;17.20;90.00;;;;;;5043526;28;20041;-71
2022/05/29 06:28:55;;;;;;;0.35;0.35;;;17.00;89.90;;;;;;5031498;28;20025;-73
2022/05/29 06:31:23;;;;;;;0.25;0.15;;;16.90;90.00;;;;;;5050235;28;20414;-71
2022/05/29 06:33:51;;;;;;;0.10;0.10;;;16.80;90.20;;;;;;5049264;28;20105;-70
2022/05/29 06:36:23;;;;;;;0.30;0.20;;;16.60;90.10;;;;;;5035399;28;20381;-70
2022/05/29 06:38:52;;;;;;;0.10;0.10;;;16.40;90.50;;;;;;5044475;28;20036;-70
2022/05/29 06:41:22;;;;;;;6.32;1.13;;;16.20;90.60;;;;;;5049152;28;20033;-71
2022/05/29 06:43:51;;;;;;;2.15;0.35;;;16.00;91.30;;;;;;5047479;28;20110;-73
2022/05/29 06:46:19;;;;;;;0.63;0.30;;;15.80;91.10;;;;;;5041913;28;20443;-73
2022/05/29 06:48:47;;;;;;;1.10;0.65;;;15.60;91.40;;;;;;5032038;28;20407;-71
2022/05/29 06:51:22;;;;;;;1.30;0.68;;;15.40;91.30;;;;;;5055950;28;20021;-74
2022/05/29 06:53:50;;;;;;;0.57;0.20;;;15.30;91.30;;;;;;5051492;28;20087;-73
2022/05/29 06:56:19;;;;;;;1.02;0.20;;;15.10;91.60;;;;;;5036592;28;20033;-74
2022/05/29 06:58:47;;;;;;;0.10;0.10;;;15.00;91.70;;;;;;5029413;28;20049;-73
2022/05/29 07:06:59;;;;;;;0.10;0.10;;;14.80;91.90;;;;;;5045422;28;20052;-73
2022/05/29 07:07:23;;;;;;;0.30;0.30;;;14.60;91.70;;;;;;5037014;28;20365;-72
2022/05/29 07:09:51;;;;;;;0.80;0.50;;;14.50;92.00;;;;;;5037523;28;20033;-72
2022/05/29 07:12:20;;;;;;;0.32;0.30;;;14.40;92.10;;;;;;5042056;28;20074;-73
2022/05/29 07:14:53;;;;;;;0.98;0.20;;;14.30;92.30;;;;;;5039655;28;20104;-73
2022/05/29 07:17:22;;;;;;;0.30;0.30;;;14.20;92.60;;;;;;5030861;28;20057;-73
2022/05/29 07:19:50;;;;;;;0.20;0.20;;;14.20;92.60;;;;;;5030342;28;20025;-73
2022/05/29 07:22:17;;;;;;;0.22;0.10;;;14.10;93.00;;;;;;5033118;28;20036;-74
2022/05/29 07:24:45;;;;;;;0.30;0.20;;;14.10;93.30;;;;;;5032007;28;20029;-73
2022/05/29 07:27:13;;;;;;;0.30;0.30;;;14.00;93.30;;;;;;5033866;28;20033;-73
2022/05/29 07:29:40;;;;;;;1.33;0.57;;;13.90;93.30;;;;;;5033394;28;20033;-73
2022/05/29 07:32:08;;;;;;;3.22;1.27;;;13.90;93.50;;;;;;5030789;28;20052;-74
2022/05/29 07:34:36;;;;;;;2.70;1.77;;;13.80;93.50;;;;;;5032809;28;20120;-74
2022/05/29 07:37:11;;;;;;;3.95;1.27;;;13.70;93.90;;;;;;5030624;28;20815;-72
2022/05/29 07:39:42;;;;;;;1.67;1.17;;;13.60;94.20;;;;;;5030110;28;20086;-73
2022/05/29 07:44:56;;;;;;;1.00;0.43;;;13.50;94.60;;;;;;5029607;28;20043;-74
2022/05/29 07:47:30;;;;;;;1.40;0.47;;;13.40;95.20;;;;;;5038816;28;20036;-74
2022/05/29 07:49:58;;;;;;;0.82;0.40;;;13.30;95.00;;;;;;5032286;28;20195;-74
2022/05/29 07:52:26;;;;;;;1.20;1.02;;;13.20;95.20;;;;;;5030417;28;20032;-74
2022/05/29 07:54:54;;;;;;;0.95;0.60;;;13.10;95.40;;;;;;5028771;28;20372;-72
2022/05/29 07:57:21;;;;;;;1.08;0.60;;;13.10;95.90;;;;;;5034096;28;20017;-73
2022/05/29 07:59:48;;;;;;;0.75;0.55;;;13.00;95.90;;;;;;5041713;28;20037;-74
2022/05/29 08:02:16;;;;;;;1.73;0.90;;;12.90;96.10;;;;;;5029346;28;20080;-74
2022/05/29 08:04:44;;;;;;;4.57;1.45;;;12.80;96.20;;;;;;5042102;28;20108;-73
2022/05/29 08:07:13;;;;;;;1.20;0.73;;;12.70;96.10;;;;;;5040015;28;20029;-74
2022/05/29 08:09:41;;;;;;;1.80;1.13;;;12.70;96.30;;;;;;5034819;28;20695;-73
2022/05/29 08:12:09;;;;;;;5.18;2.03;;;12.60;96.40;;;;;;5046555;28;20033;-75
2022/05/29 08:14:39;;;;;;;2.08;1.10;;;12.60;96.60;;;;;;5037166;28;20056;-74
2022/05/29 08:17:09;;;;;;;2.53;1.33;;;12.50;96.70;;;;;;5035386;28;20026;-74
2022/05/29 08:19:38;;;;;;;4.30;1.30;;;12.40;96.80;;;;;;5052555;28;20552;-72
2022/05/29 08:22:06;;;;;;;3.40;1.60;;;12.40;97.40;;;;;;5040370;28;20037;-73
2022/05/29 08:33:32;;;;;;;1.50;1.02;;;12.20;98.00;;;;;;5039683;28;20025;-77
2022/05/29 08:36:08;;;;;;;1.63;1.10;;;12.10;97.90;;;;;;5048197;28;20029;-73
2022/05/29 08:38:43;;;;;;;3.97;1.45;;;12.20;97.90;;;;;;5050172;28;20059;-73
2022/05/29 08:41:18;;;;;;;3.75;1.35;;;12.10;97.90;;;;;;5048151;28;20049;-74
2022/05/29 08:43:55;;;;;;;5.45;1.38;;;12.10;97.80;;;;;;5032246;28;20400;-74
2022/05/29 08:46:29;;;;;;;3.10;0.85;;;12.10;97.60;;;;;;5050134;28;20033;-74
2022/05/29 08:48:58;;;;;;;3.17;0.75;;;12.10;97.40;;;;;;5041008;28;20137;-74
2022/05/29 08:51:34;;;;;;;1.48;0.95;;;12.00;97.60;;;;;;5036493;28;20170;-73
2022/05/29 08:54:10;;;;;;;;;;;12.00;97.50;;;;;;5030976;28;20029;-74
2022/05/29 08:56:53;;;;;;;2.53;1.27;;;11.90;97.50;;;;;;5037846;28;19916;-74
2022/05/29 08:59:46;;;;;;;3.20;1.75;;;11.90;97.20;;;;;;5039831;28;20029;-72
2022/05/29 09:02:51;;;;;;;5.93;2.60;;;11.90;97.30;;;;;;5042581;28;20033;-74
2022/05/29 09:05:34;;;;;;;2.95;1.90;;;11.90;97.10;;;;;;5013920;28;20037;-75
2022/05/29 09:08:09;;;;;;;3.47;1.42;;;11.90;97.40;;;;;;5033691;28;20048;-73
2022/05/29 09:10:44;;;;;;;2.45;1.70;;;11.80;97.60;;;;;;5029799;28;20033;-72
2022/05/29 09:13:21;;;;;;;1.45;0.80;;;11.80;97.40;;;;;;5031679;28;20061;-71
2022/05/29 09:15:56;;;;;;;2.20;0.80;;;11.70;97.70;;;;;;5032790;28;20556;-73
2022/05/29 09:18:28;;;;;;;0.95;0.70;;;11.70;97.60;;;;;;5030908;28;20041;-74
2022/05/29 09:21:03;;;;;;;1.65;0.90;;;11.60;97.80;;;;;;5035164;28;20692;-73
2022/05/29 09:23:55;;;;;;;1.10;0.70;;;11.60;97.80;;;;;;5035698;28;20026;-73
2022/05/29 09:26:23;;;;;;;0.88;0.65;;;11.60;97.40;;;;;;5041621;28;20040;-74
2022/05/29 09:28:50;;;;;;;1.83;0.80;;;11.60;97.70;;;;;;5036616;28;20486;-74
2022/05/29 09:31:26;;;;;;;2.35;0.90;;;11.50;97.90;;;;;;5031865;28;20029;-73
2022/05/29 09:33:54;;;;;;;;;;;11.40;98.20;;;;;;5044962;28;20534;-74
2022/05/29 09:36:36;;;;;;;2.85;1.15;;;11.40;98.50;;;;;;5029921;28;19913;-74
2022/05/29 09:39:23;;;;;;;4.30;1.63;;;11.30;98.50;;;;;;5038200;28;20029;-73
2022/05/29 09:42:01;;;;;;;6.03;2.70;;;11.30;98.10;;;;;;5032271;28;20043;-74
2022/05/29 09:44:29;;;;;;;6.15;3.42;;;11.20;98.10;;;;;;5028392;28;20419;-74
2022/05/29 09:49:40;;;;;;;5.32;3.20;;;11.20;98.10;;;;;;5033741;28;20094;-74
2022/05/29 09:50:01;;;;;;;5.00;2.80;;;11.20;98.10;;;;;;5031624;28;20143;-74
2022/05/29 09:52:43;;;;;;;2.05;1.50;;;11.20;97.80;;;;;;5031099;28;20430;-74
2022/05/29 09:55:34;;;;;;;4.18;3.00;;;11.20;97.80;;;;;;5031370;28;20062;-74
2022/05/29 09:58:02;;;;;;;2.88;2.17;;;11.20;98.00;;;;;;5030912;28;20040;-74
2022/05/29 10:00:36;;;;;;;3.58;2.65;;;11.20;98.60;;;;;;5031585;28;20052;-74
2022/05/29 10:03:10;;;;;;;3.03;2.40;;;11.10;98.40;;;;;;5038979;28;20021;-72
2022/05/29 10:05:41;;;;;;;3.28;2.40;;;11.00;98.70;;;;;;5031782;28;20070;-73
2022/05/29 10:08:31;;;;;;;5.55;2.40;;;10.90;99.20;;;;;;5031573;28;20049;-72
2022/05/29 10:11:37;;;;;;;3.15;1.70;;;10.90;99.50;;;;;;5028610;28;20075;-73
2022/05/29 10:14:40;;;;;;;3.63;1.50;;;10.80;99.60;;;;;;5031903;28;20036;-73
2022/05/29 10:17:14;;;;;;;5.63;2.83;;;10.70;99.50;;;;;;5024297;28;20041;-72
2022/05/29 10:19:47;;;;;;;8.73;4.57;;;10.60;99.90;;;;;;5036139;28;20784;-72
2022/05/29 10:22:21;;;;;;;34.83;14.20;;;10.50;99.90;;;;;;5029957;28;20068;-75
2022/05/29 10:24:49;;;;;;;18.90;8.95;;;10.40;99.90;;;;;;5030574;28;20144;-74
2022/05/29 10:27:35;;;;;;;13.05;6.43;;;10.40;99.90;;;;;;5032523;28;20108;-72
2022/05/29 10:30:08;;;;;;;7.32;3.55;;;10.30;99.90;;;;;;5035908;28;20045;-73
2022/05/29 10:32:37;;;;;;;4.47;2.40;;;10.30;99.90;;;;;;5028207;28;20025;-74
2022/05/29 10:35:27;;;;;;;3.90;1.80;;;10.30;99.90;;;;;;5031991;28;20017;-75
2022/05/29 10:37:55;;;;;;;2.65;1.48;;;10.20;99.90;;;;;;5034979;28;20144;-74
2022/05/29 10:40:23;;;;;;;2.15;1.08;;;10.10;99.90;;;;;;5032985;28;20088;-76
2022/05/29 10:42:56;;;;;;;1.45;0.73;;;10.00;99.90;;;;;;5032990;28;20436;-77
2022/05/29 10:45:25;;;;;;;0.85;0.77;;;10.00;99.90;;;;;;5028245;28;20091;-75
2022/05/29 10:47:55;;;;;;;0.40;0.30;;;10.00;99.90;;;;;;5030532;28;20029;-74
2022/05/29 10:50:30;;;;;;;0.55;0.47;;;10.00;99.90;;;;;;5027938;28;20224;-73
2022/05/29 10:53:06;;;;;;;0.85;0.68;;;10.10;99.90;;;;;;5031221;28;20048;-76
2022/05/29 10:55:51;;;;;;;0.98;0.20;;;10.10;99.90;;;;;;5029169;28;20108;-78
2022/05/29 10:58:43;;;;;;;0.80;0.30;;;10.20;99.90;;;;;;5033131;28;20029;-74
2022/05/29 11:04:59;;;;;;;23.80;15.57;;;10.10;99.90;;;;;;5040962;28;20032;-77
2022/05/29 11:07:49;;;;;;;35.78;22.33;;;10.10;99.90;;;;;;5027709;28;20045;-76
2022/05/29 11:10:20;;;;;;;15.65;9.18;;;10.00;99.90;;;;;;5028713;28;20106;-78
2022/05/29 11:13:00;;;;;;;14.52;9.15;;;9.90;99.90;;;;;;5031966;28;20060;-77
2022/05/29 11:15:46;;;;;;;19.30;11.18;;;9.80;99.90;;;;;;5030385;28;20036;-76
2022/05/29 11:19:08;;;;;;;12.73;7.68;;;9.70;99.90;;;;;;5028570;28;20025;-75
2022/05/29 11:21:42;;;;;;;8.80;5.28;;;9.60;99.90;;;;;;4993998;28;20045;-77
2022/05/29 11:24:16;;;;;;;11.00;6.50;;;9.50;99.90;;;;;;4995419;28;20036;-76
2022/05/29 11:26:54;;;;;;;12.18;6.80;;;9.50;99.90;;;;;;5017825;28;20118;-77
2022/05/29 11:29:58;;;;;;;13.52;7.10;;;9.50;99.90;;;;;;5031157;28;20030;-76
2022/05/29 11:32:52;;;;;;;7.45;5.38;;;9.50;99.90;;;;;;5030761;28;20033;-76
2022/05/29 11:35:29;;;;;;;10.38;5.38;;;9.40;99.90;;;;;;5031824;28;20151;-76
2022/05/29 11:38:19;;;;;;;9.80;5.85;;;9.30;99.90;;;;;;5031762;28;20112;-73
2022/05/29 11:41:05;;;;;;;6.03;3.95;;;9.20;99.90;;;;;;5029709;28;20033;-76
2022/05/29 11:43:55;;;;;;;9.67;5.13;;;9.10;99.90;;;;;;5029745;28;20028;-75
2022/05/29 11:52:37;;;;;;;17.98;11.77;;;9.20;99.90;;;;;;5038032;28;20518;-77
2022/05/29 11:55:22;;;;;;;18.23;14.50;;;9.20;99.90;;;;;;5035007;28;20079;-77
2022/05/29 11:58:11;;;;;;;14.30;10.75;;;9.20;99.90;;;;;;5036441;28;20026;-76
2022/05/29 12:00:47;;;;;;;12.30;5.25;;;9.20;99.90;;;;;;5033073;28;20725;-74
2022/05/29 12:03:15;;;;;;;6.72;3.40;;;9.10;99.90;;;;;;5035974;28;20256;-75
2022/05/29 12:05:57;;;;;;;5.35;3.97;;;9.00;99.90;;;;;;5030675;28;20037;-74
2022/05/29 12:08:57;;;;;;;8.50;5.38;;;8.80;99.90;;;;;;5031969;28;20018;-76
2022/05/29 12:11:43;;;;;;;8.23;4.60;;;8.80;99.90;;;;;;5035256;28;20118;-75
2022/05/29 12:14:29;;;;;;;6.47;4.03;;;8.70;99.90;;;;;;5035004;28;20435;-75
2022/05/29 12:17:31;;;;;;;4.22;2.75;;;8.60;99.90;;;;;;5048835;28;20025;-76
2022/05/29 12:20:13;;;;;;;2.60;1.58;;;8.60;99.90;;;;;;5029951;28;20345;-76
2022/05/29 12:22:49;;;;;;;4.57;2.15;;;8.50;99.90;;;;;;5030648;28;20033;-75
2022/05/29 12:25:57;;;;;;;3.60;1.90;;;8.60;99.90;;;;;;5032731;28;20025;-76
2022/05/29 12:28:44;;;;;;;2.90;1.50;;;8.60;99.90;;;;;;5030091;28;20078;-75
2022/05/29 12:31:32;;;;;;;1.65;1.15;;;8.60;99.90;;;;;;5032896;28;20100;-76
2022/05/29 12:33:59;;;;;;;2.55;1.25;;;8.60;99.90;;;;;;5028560;28;20040;-74
2022/05/29 12:36:58;;;;;;;4.78;2.92;;;8.70;99.90;;;;;;5033094;28;20039;-77
2022/05/29 12:39:35;;;;;;;6.38;3.20;;;8.70;99.90;;;;;;5029126;28;20037;-76
2022/05/29 12:42:09;;;;;;;7.30;4.00;;;8.80;99.90;;;;;;5033545;28;21015;-76
2022/05/29 12:45:10;;;;;;;5.47;3.60;;;8.80;99.90;;;;;;5029986;28;20112;-76
2022/05/29 12:48:04;;;;;;;6.40;3.88;;;8.80;99.90;;;;;;5043623;28;20034;-76
2022/05/29 12:51:07;;;;;;;7.03;5.28;;;8.70;99.90;;;;;;5031089;28;20025;-76
2022/05/29 12:54:05;;;;;;;7.70;3.55;;;8.70;99.90;;;;;;5033065;28;20482;-75
2022/05/29 12:56:42;;;;;;;5.90;5.00;;;8.60;99.90;;;;;;5033379;28;20897;-76
2022/05/29 12:59:37;;;;;;;8.00;5.30;;;8.50;99.90;;;;;;5028948;28;20036;-76
2022/05/29 13:02:37;;;;;;;11.48;6.38;;;8.50;99.90;;;;;;5031494;28;20045;-78
2022/05/29 13:05:38;;;;;;;12.45;7.05;;;8.40;99.90;;;;;;5030964;28;20025;-77
2022/05/29 13:08:19;;;;;;;16.52;11.13;;;8.40;99.90;;;;;;5032781;28;20038;-77
2022/05/29 13:10:55;;;;;;;17.60;8.80;;;8.30;99.90;;;;;;5030382;28;20097;-78
2022/05/29 13:13:32;;;;;;;11.18;7.25;;;8.30;99.90;;;;;;5032325;28;20546;-77
2022/05/29 13:16:22;;;;;;;11.05;6.63;;;8.20;99.90;;;;;;5035083;28;20033;-77
2022/05/29 13:22:04;;;;;;;12.77;8.50;;;8.10;99.90;;;;;;5033764;28;20582;-79
2022/05/29 13:24:42;;;;;;;10.93;7.38;;;8.00;99.90;;;;;;5032737;28;20649;-74
2022/05/29 13:27:12;;;;;;;13.30;7.80;;;7.90;99.90;;;;;;5034430;28;20021;-75
2022/05/29 13:29:53;;;;;;;15.82;9.00;;;7.70;99.90;;;;;;5031722;28;20026;-76
2022/05/29 13:32:27;;;;;;;25.45;12.27;;;7.70;99.90;;;;;;5031756;28;20074;-75
2022/05/29 13:35:06;;;;;;;14.43;8.82;;;7.70;99.90;;;;;;5029515;28;20030;-75
2022/05/29 13:37:33;;;;;;;19.83;8.23;;;7.80;99.90;;;;;;5037280;28;20032;-77
2022/05/29 13:40:20;;;;;;;12.95;6.72;;;7.80;99.90;;;;;;5047051;28;20557;-75
2022/05/29 13:42:51;;;;;;;;;;;7.80;99.90;;;;;;5048607;28;20111;-77
2022/05/29 13:45:24;;;;;;;10.30;7.45;;;7.80;99.90;;;;;;5046899;28;19909;-77
2022/05/29 13:48:13;;;;;;;10.88;6.18;;;7.80;99.90;;;;;;5041824;28;20048;-74
2022/05/29 13:50:55;;;;;;;10.27;5.57;;;7.80;99.90;;;;;;5040563;28;20029;-75
2022/05/29 13:53:29;;;;;;;9.20;5.10;;;7.90;99.90;;;;;;5033700;28;20025;-78
2022/05/29 13:55:59;;;;;;;11.10;5.03;;;7.90;99.90;;;;;;5032930;28;20495;-76
2022/05/29 14:04:37;;;;;;;6.78;3.92;;;7.70;99.90;;;;;;5046336;28;20043;-79
2022/05/29 14:07:16;;;;;;;5.20;3.40;;;7.60;99.90;;;;;;5042326;28;20032;-75
2022/05/29 14:10:20;;;;;;;6.63;3.38;;;7.60;99.90;;;;;;5035376;28;20116;-77
2022/05/29 14:13:00;;;;;;;6.15;3.45;;;7.60;99.90;;;;;;5052476;28;20102;-78
2022/05/29 14:15:45;;;;;;;8.27;4.32;;;7.50;99.90;;;;;;5046157;28;20021;-77